sensor_id;sensor_type;location;lat;lon;timestamp;P1;durP1;ratioP1;P2;durP2;ratioP2
22205;SDS011;11272;50.104;8.754;2022-07-23T00:01:34;8.60;;;4.57;;
22205;SDS011;11272;50.104;8.754;2022-07-23T00:04:00;6.67;;;5.17;;
22205;SDS011;11272;50.104;8.754;2022-07-23T00:06:26;7.40;;;5.10;;
22205;SDS011;11272;50.104;8.754;2022-07-23T00:08:51;6.57;;;5.30;;
22205;SDS011;11272;50.104;8.754;2022-07-23T00:11:17;6.87;;;5.20;;
22205;SDS011;11272;50.104;8.754;2022-07-23T00:13:43;6.57;;;5.13;;
22205;SDS011;11272;50.104;8.754;2022-07-23T00:16:09;8.50;;;5.07;;
22205;SDS011;11272;50.104;8.754;2022-07-23T00:18:34;6.90;;;5.00;;
22205;SDS011;11272;50.104;8.754;2022-07-23T00:21:00;6.57;;;4.53;;
22205;SDS011;11272;50.104;8.754;2022-07-23T00:23:25;6.03;;;4.93;;
22205;SDS011;11272;50.104;8.754;2022-07-23T00:25:52;7.23;;;5.03;;
22205;SDS011;11272;50.104;8.754;2022-07-23T00:28:18;9.23;;;4.87;;
22205;SDS011;11272;50.104;8.754;2022-07-23T00:30:44;7.57;;;4.90;;
22205;SDS011;11272;50.104;8.754;2022-07-23T00:33:09;10.23;;;5.60;;
22205;SDS011;11272;50.104;8.754;2022-07-23T00:35:37;9.20;;;5.50;;
22205;SDS011;11272;50.104;8.754;2022-07-23T00:38:06;9.57;;;5.40;;
22205;SDS011;11272;50.104;8.754;2022-07-23T00:40:32;14.73;;;5.70;;
22205;SDS011;11272;50.104;8.754;2022-07-23T00:42:58;9.43;;;5.07;;
22205;SDS011;11272;50.104;8.754;2022-07-23T00:45:24;4.80;;;4.33;;
22205;SDS011;11272;50.104;8.754;2022-07-23T00:47:50;8.17;;;5.17;;
22205;SDS011;11272;50.104;8.754;2022-07-23T00:50:16;9.73;;;5.07;;
22205;SDS011;11272;50.104;8.754;2022-07-23T00:52:42;7.50;;;5.00;;
22205;SDS011;11272;50.104;8.754;2022-07-23T00:55:09;8.60;;;4.87;;
22205;SDS011;11272;50.104;8.754;2022-07-23T00:57:36;8.43;;;5.57;;
22205;SDS011;11272;50.104;8.754;2022-07-23T01:00:03;8.03;;;4.77;;
22205;SDS011;11272;50.104;8.754;2022-07-23T01:02:30;8.30;;;5.00;;
22205;SDS011;11272;50.104;8.754;2022-07-23T01:04:55;9.13;;;5.20;;
22205;SDS011;11272;50.104;8.754;2022-07-23T01:07:21;6.83;;;5.03;;
22205;SDS011;11272;50.104;8.754;2022-07-23T01:09:46;7.30;;;5.53;;
22205;SDS011;11272;50.104;8.754;2022-07-23T01:12:12;9.27;;;5.40;;
22205;SDS011;11272;50.104;8.754;2022-07-23T01:14:38;8.93;;;5.53;;
22205;SDS011;11272;50.104;8.754;2022-07-23T01:17:04;9.67;;;6.43;;
22205;SDS011;11272;50.104;8.754;2022-07-23T01:19:30;8.93;;;5.33;;
22205;SDS011;11272;50.104;8.754;2022-07-23T01:21:56;8.17;;;5.43;;
22205;SDS011;11272;50.104;8.754;2022-07-23T01:24:23;8.67;;;5.97;;
22205;SDS011;11272;50.104;8.754;2022-07-23T01:26:57;7.33;;;5.60;;
22205;SDS011;11272;50.104;8.754;2022-07-23T01:29:23;8.73;;;5.73;;
22205;SDS011;11272;50.104;8.754;2022-07-23T01:31:49;10.37;;;6.00;;
22205;SDS011;11272;50.104;8.754;2022-07-23T01:34:15;8.27;;;5.53;;
22205;SDS011;11272;50.104;8.754;2022-07-23T01:36:40;12.23;;;7.93;;
22205;SDS011;11272;50.104;8.754;2022-07-23T01:39:07;8.37;;;5.70;;
22205;SDS011;11272;50.104;8.754;2022-07-23T01:41:33;8.97;;;5.90;;
22205;SDS011;11272;50.104;8.754;2022-07-23T01:43:59;7.80;;;5.63;;
22205;SDS011;11272;50.104;8.754;2022-07-23T01:46:25;8.97;;;5.80;;
22205;SDS011;11272;50.104;8.754;2022-07-23T01:48:51;8.90;;;6.10;;
22205;SDS011;11272;50.104;8.754;2022-07-23T01:51:43;10.53;;;5.97;;
22205;SDS011;11272;50.104;8.754;2022-07-23T01:54:34;8.20;;;5.47;;
22205;SDS011;11272;50.104;8.754;2022-07-23T01:57:00;7.93;;;5.77;;
22205;SDS011;11272;50.104;8.754;2022-07-23T01:59:26;7.20;;;5.30;;
22205;SDS011;11272;50.104;8.754;2022-07-23T02:01:52;9.50;;;6.20;;
22205;SDS011;11272;50.104;8.754;2022-07-23T02:04:19;10.67;;;6.00;;
22205;SDS011;11272;50.104;8.754;2022-07-23T02:06:46;7.83;;;6.00;;
22205;SDS011;11272;50.104;8.754;2022-07-23T02:09:11;8.20;;;6.20;;
22205;SDS011;11272;50.104;8.754;2022-07-23T02:11:37;11.60;;;6.43;;
22205;SDS011;11272;50.104;8.754;2022-07-23T02:14:02;9.90;;;6.10;;
22205;SDS011;11272;50.104;8.754;2022-07-23T02:16:28;10.50;;;6.73;;
22205;SDS011;11272;50.104;8.754;2022-07-23T02:18:59;7.67;;;5.80;;
22205;SDS011;11272;50.104;8.754;2022-07-23T02:21:25;9.00;;;5.90;;
22205;SDS011;11272;50.104;8.754;2022-07-23T02:23:52;8.17;;;5.50;;
22205;SDS011;11272;50.104;8.754;2022-07-23T02:26:20;13.43;;;5.30;;
22205;SDS011;11272;50.104;8.754;2022-07-23T02:28:47;8.37;;;5.23;;
22205;SDS011;11272;50.104;8.754;2022-07-23T02:31:13;9.57;;;5.83;;
22205;SDS011;11272;50.104;8.754;2022-07-23T02:33:38;7.27;;;5.23;;
22205;SDS011;11272;50.104;8.754;2022-07-23T02:36:06;6.57;;;5.43;;
22205;SDS011;11272;50.104;8.754;2022-07-23T02:38:31;12.00;;;6.00;;
22205;SDS011;11272;50.104;8.754;2022-07-23T02:40:57;7.70;;;5.53;;
22205;SDS011;11272;50.104;8.754;2022-07-23T02:43:22;8.70;;;5.83;;
22205;SDS011;11272;50.104;8.754;2022-07-23T02:45:48;7.13;;;5.60;;
22205;SDS011;11272;50.104;8.754;2022-07-23T02:48:13;8.40;;;5.57;;
22205;SDS011;11272;50.104;8.754;2022-07-23T02:50:42;9.73;;;5.50;;
22205;SDS011;11272;50.104;8.754;2022-07-23T02:53:07;8.10;;;5.43;;
22205;SDS011;11272;50.104;8.754;2022-07-23T02:55:33;8.20;;;5.27;;
22205;SDS011;11272;50.104;8.754;2022-07-23T02:58:00;9.03;;;5.40;;
22205;SDS011;11272;50.104;8.754;2022-07-23T03:00:26;9.93;;;5.60;;
22205;SDS011;11272;50.104;8.754;2022-07-23T03:02:52;14.07;;;5.57;;
22205;SDS011;11272;50.104;8.754;2022-07-23T03:05:17;9.10;;;5.60;;
22205;SDS011;11272;50.104;8.754;2022-07-23T03:07:43;7.70;;;5.43;;
22205;SDS011;11272;50.104;8.754;2022-07-23T03:10:08;10.47;;;5.80;;
22205;SDS011;11272;50.104;8.754;2022-07-23T03:12:34;9.77;;;5.83;;
22205;SDS011;11272;50.104;8.754;2022-07-23T03:14:59;7.40;;;5.27;;
22205;SDS011;11272;50.104;8.754;2022-07-23T03:17:26;8.13;;;5.67;;
22205;SDS011;11272;50.104;8.754;2022-07-23T03:19:51;11.47;;;6.20;;
22205;SDS011;11272;50.104;8.754;2022-07-23T03:22:17;9.13;;;5.80;;
22205;SDS011;11272;50.104;8.754;2022-07-23T03:24:42;7.77;;;5.30;;
22205;SDS011;11272;50.104;8.754;2022-07-23T03:27:28;9.43;;;5.93;;
22205;SDS011;11272;50.104;8.754;2022-07-23T03:29:55;7.57;;;5.40;;
22205;SDS011;11272;50.104;8.754;2022-07-23T03:32:22;7.63;;;5.97;;
22205;SDS011;11272;50.104;8.754;2022-07-23T03:34:49;9.27;;;5.73;;
22205;SDS011;11272;50.104;8.754;2022-07-23T03:37:15;8.77;;;5.73;;
22205;SDS011;11272;50.104;8.754;2022-07-23T03:39:41;7.17;;;5.57;;
22205;SDS011;11272;50.104;8.754;2022-07-23T03:42:07;8.30;;;5.73;;
22205;SDS011;11272;50.104;8.754;2022-07-23T03:44:33;6.73;;;5.47;;
22205;SDS011;11272;50.104;8.754;2022-07-23T03:47:01;9.37;;;5.60;;
22205;SDS011;11272;50.104;8.754;2022-07-23T03:49:27;8.10;;;5.77;;
22205;SDS011;11272;50.104;8.754;2022-07-23T03:51:52;7.93;;;5.63;;
22205;SDS011;11272;50.104;8.754;2022-07-23T03:54:18;8.37;;;5.87;;
22205;SDS011;11272;50.104;8.754;2022-07-23T03:56:43;11.30;;;5.83;;
22205;SDS011;11272;50.104;8.754;2022-07-23T03:59:09;10.83;;;6.17;;
22205;SDS011;11272;50.104;8.754;2022-07-23T04:01:34;9.77;;;5.90;;
22205;SDS011;11272;50.104;8.754;2022-07-23T04:04:00;6.60;;;5.60;;
22205;SDS011;11272;50.104;8.754;2022-07-23T04:06:26;12.90;;;5.80;;
22205;SDS011;11272;50.104;8.754;2022-07-23T04:08:53;10.27;;;6.13;;
22205;SDS011;11272;50.104;8.754;2022-07-23T04:11:19;9.70;;;6.53;;
22205;SDS011;11272;50.104;8.754;2022-07-23T04:13:44;9.53;;;5.93;;
22205;SDS011;11272;50.104;8.754;2022-07-23T04:16:11;8.43;;;6.17;;
22205;SDS011;11272;50.104;8.754;2022-07-23T04:18:36;8.40;;;6.20;;
22205;SDS011;11272;50.104;8.754;2022-07-23T04:21:12;9.97;;;6.63;;
22205;SDS011;11272;50.104;8.754;2022-07-23T04:23:37;9.07;;;6.77;;
22205;SDS011;11272;50.104;8.754;2022-07-23T04:26:05;9.03;;;6.40;;
22205;SDS011;11272;50.104;8.754;2022-07-23T04:28:31;10.40;;;7.10;;
22205;SDS011;11272;50.104;8.754;2022-07-23T04:30:57;9.47;;;6.43;;
22205;SDS011;11272;50.104;8.754;2022-07-23T04:33:23;13.00;;;7.63;;
22205;SDS011;11272;50.104;8.754;2022-07-23T04:35:51;10.17;;;7.17;;
22205;SDS011;11272;50.104;8.754;2022-07-23T04:38:18;9.87;;;7.67;;
22205;SDS011;11272;50.104;8.754;2022-07-23T04:40:45;10.47;;;7.37;;
22205;SDS011;11272;50.104;8.754;2022-07-23T04:43:11;10.03;;;7.33;;
22205;SDS011;11272;50.104;8.754;2022-07-23T04:45:43;10.77;;;7.50;;
22205;SDS011;11272;50.104;8.754;2022-07-23T04:48:09;8.70;;;6.73;;
22205;SDS011;11272;50.104;8.754;2022-07-23T04:50:34;10.93;;;7.60;;
22205;SDS011;11272;50.104;8.754;2022-07-23T04:53:00;8.97;;;7.00;;
22205;SDS011;11272;50.104;8.754;2022-07-23T04:55:25;12.83;;;7.67;;
22205;SDS011;11272;50.104;8.754;2022-07-23T04:57:52;11.53;;;7.17;;
22205;SDS011;11272;50.104;8.754;2022-07-23T05:00:17;13.40;;;7.00;;
22205;SDS011;11272;50.104;8.754;2022-07-23T05:02:42;11.47;;;6.80;;
22205;SDS011;11272;50.104;8.754;2022-07-23T05:05:08;11.37;;;6.67;;
22205;SDS011;11272;50.104;8.754;2022-07-23T05:07:34;13.17;;;6.37;;
22205;SDS011;11272;50.104;8.754;2022-07-23T05:09:59;8.67;;;6.80;;
22205;SDS011;11272;50.104;8.754;2022-07-23T05:12:25;10.63;;;7.20;;
22205;SDS011;11272;50.104;8.754;2022-07-23T05:14:50;11.10;;;7.20;;
22205;SDS011;11272;50.104;8.754;2022-07-23T05:17:18;10.20;;;6.80;;
22205;SDS011;11272;50.104;8.754;2022-07-23T05:19:43;10.77;;;6.40;;
22205;SDS011;11272;50.104;8.754;2022-07-23T05:22:09;10.80;;;6.93;;
22205;SDS011;11272;50.104;8.754;2022-07-23T05:24:34;11.10;;;7.60;;
22205;SDS011;11272;50.104;8.754;2022-07-23T05:27:01;11.63;;;7.67;;
22205;SDS011;11272;50.104;8.754;2022-07-23T05:29:26;11.67;;;7.27;;
22205;SDS011;11272;50.104;8.754;2022-07-23T05:31:51;9.13;;;6.70;;
22205;SDS011;11272;50.104;8.754;2022-07-23T05:34:17;10.40;;;7.47;;
22205;SDS011;11272;50.104;8.754;2022-07-23T05:36:43;12.27;;;7.07;;
22205;SDS011;11272;50.104;8.754;2022-07-23T05:39:09;10.20;;;6.97;;
22205;SDS011;11272;50.104;8.754;2022-07-23T05:41:36;13.63;;;7.57;;
22205;SDS011;11272;50.104;8.754;2022-07-23T05:44:02;11.93;;;7.63;;
22205;SDS011;11272;50.104;8.754;2022-07-23T05:46:29;9.07;;;6.77;;
22205;SDS011;11272;50.104;8.754;2022-07-23T05:48:59;12.93;;;7.47;;
22205;SDS011;11272;50.104;8.754;2022-07-23T05:51:44;12.63;;;7.40;;
22205;SDS011;11272;50.104;8.754;2022-07-23T05:54:10;12.20;;;8.00;;
22205;SDS011;11272;50.104;8.754;2022-07-23T05:56:37;11.83;;;7.43;;
22205;SDS011;11272;50.104;8.754;2022-07-23T05:59:03;11.47;;;7.43;;
22205;SDS011;11272;50.104;8.754;2022-07-23T06:01:28;9.80;;;7.07;;
22205;SDS011;11272;50.104;8.754;2022-07-23T06:04:12;10.40;;;7.17;;
22205;SDS011;11272;50.104;8.754;2022-07-23T06:06:43;13.57;;;7.10;;
22205;SDS011;11272;50.104;8.754;2022-07-23T06:09:10;11.63;;;6.70;;
22205;SDS011;11272;50.104;8.754;2022-07-23T06:11:39;11.03;;;6.80;;
22205;SDS011;11272;50.104;8.754;2022-07-23T06:14:05;12.13;;;6.70;;
22205;SDS011;11272;50.104;8.754;2022-07-23T06:17:00;11.43;;;7.40;;
22205;SDS011;11272;50.104;8.754;2022-07-23T06:19:26;13.50;;;7.07;;
22205;SDS011;11272;50.104;8.754;2022-07-23T06:21:51;9.27;;;6.93;;
22205;SDS011;11272;50.104;8.754;2022-07-23T06:24:17;10.37;;;7.03;;
22205;SDS011;11272;50.104;8.754;2022-07-23T06:26:42;10.47;;;6.20;;
22205;SDS011;11272;50.104;8.754;2022-07-23T06:29:08;10.00;;;6.53;;
22205;SDS011;11272;50.104;8.754;2022-07-23T06:31:33;8.23;;;6.00;;
22205;SDS011;11272;50.104;8.754;2022-07-23T06:33:59;7.20;;;5.90;;
22205;SDS011;11272;50.104;8.754;2022-07-23T06:36:24;8.40;;;5.63;;
22205;SDS011;11272;50.104;8.754;2022-07-23T06:38:50;8.53;;;6.37;;
22205;SDS011;11272;50.104;8.754;2022-07-23T06:41:15;9.43;;;6.10;;
22205;SDS011;11272;50.104;8.754;2022-07-23T06:43:41;10.43;;;5.83;;
22205;SDS011;11272;50.104;8.754;2022-07-23T06:46:07;8.37;;;6.13;;
22205;SDS011;11272;50.104;8.754;2022-07-23T06:48:32;9.43;;;5.87;;
22205;SDS011;11272;50.104;8.754;2022-07-23T06:51:01;9.23;;;6.33;;
22205;SDS011;11272;50.104;8.754;2022-07-23T06:53:27;8.40;;;5.73;;
22205;SDS011;11272;50.104;8.754;2022-07-23T06:55:52;9.63;;;5.63;;
22205;SDS011;11272;50.104;8.754;2022-07-23T06:58:21;10.47;;;6.10;;
22205;SDS011;11272;50.104;8.754;2022-07-23T07:00:46;7.90;;;5.83;;
22205;SDS011;11272;50.104;8.754;2022-07-23T07:03:12;7.63;;;5.63;;
22205;SDS011;11272;50.104;8.754;2022-07-23T07:05:38;7.63;;;5.63;;
22205;SDS011;11272;50.104;8.754;2022-07-23T07:08:05;7.28;;;4.78;;
22205;SDS011;11272;50.104;8.754;2022-07-23T07:10:31;10.43;;;5.70;;
22205;SDS011;11272;50.104;8.754;2022-07-23T07:12:57;6.78;;;5.43;;
22205;SDS011;11272;50.104;8.754;2022-07-23T07:15:22;7.95;;;5.07;;
22205;SDS011;11272;50.104;8.754;2022-07-23T07:17:48;8.20;;;5.05;;
22205;SDS011;11272;50.104;8.754;2022-07-23T07:20:13;8.98;;;5.30;;
22205;SDS011;11272;50.104;8.754;2022-07-23T07:22:39;8.50;;;5.18;;
22205;SDS011;11272;50.104;8.754;2022-07-23T07:25:04;7.22;;;4.85;;
22205;SDS011;11272;50.104;8.754;2022-07-23T07:27:31;9.15;;;4.90;;
22205;SDS011;11272;50.104;8.754;2022-07-23T07:29:56;10.27;;;4.78;;
22205;SDS011;11272;50.104;8.754;2022-07-23T07:32:25;5.68;;;4.43;;
22205;SDS011;11272;50.104;8.754;2022-07-23T07:34:50;6.88;;;4.60;;
22205;SDS011;11272;50.104;8.754;2022-07-23T07:37:16;7.60;;;5.28;;
22205;SDS011;11272;50.104;8.754;2022-07-23T07:39:41;6.25;;;4.32;;
22205;SDS011;11272;50.104;8.754;2022-07-23T07:42:07;7.68;;;4.80;;
22205;SDS011;11272;50.104;8.754;2022-07-23T07:44:32;6.80;;;5.00;;
22205;SDS011;11272;50.104;8.754;2022-07-23T07:46:58;5.50;;;4.30;;
22205;SDS011;11272;50.104;8.754;2022-07-23T07:49:23;6.22;;;4.65;;
22205;SDS011;11272;50.104;8.754;2022-07-23T07:51:49;7.05;;;4.68;;
22205;SDS011;11272;50.104;8.754;2022-07-23T07:54:14;7.80;;;4.72;;
22205;SDS011;11272;50.104;8.754;2022-07-23T07:56:40;8.48;;;4.63;;
22205;SDS011;11272;50.104;8.754;2022-07-23T07:59:06;9.25;;;4.57;;
22205;SDS011;11272;50.104;8.754;2022-07-23T08:01:31;6.53;;;4.40;;
22205;SDS011;11272;50.104;8.754;2022-07-23T08:03:57;11.05;;;4.80;;
22205;SDS011;11272;50.104;8.754;2022-07-23T08:06:22;7.20;;;4.60;;
22205;SDS011;11272;50.104;8.754;2022-07-23T08:08:47;6.97;;;3.85;;
22205;SDS011;11272;50.104;8.754;2022-07-23T08:11:13;5.45;;;4.32;;
22205;SDS011;11272;50.104;8.754;2022-07-23T08:13:38;15.90;;;8.07;;
22205;SDS011;11272;50.104;8.754;2022-07-23T08:16:04;4.72;;;4.28;;
22205;SDS011;11272;50.104;8.754;2022-07-23T08:18:29;5.03;;;4.00;;
22205;SDS011;11272;50.104;8.754;2022-07-23T08:20:55;4.80;;;3.90;;
22205;SDS011;11272;50.104;8.754;2022-07-23T08:23:20;5.30;;;4.03;;
22205;SDS011;11272;50.104;8.754;2022-07-23T08:25:46;6.05;;;4.30;;
22205;SDS011;11272;50.104;8.754;2022-07-23T08:28:12;8.40;;;4.25;;
22205;SDS011;11272;50.104;8.754;2022-07-23T08:30:39;7.28;;;4.72;;
22205;SDS011;11272;50.104;8.754;2022-07-23T08:33:10;5.47;;;4.40;;
22205;SDS011;11272;50.104;8.754;2022-07-23T08:35:41;10.18;;;4.50;;
22205;SDS011;11272;50.104;8.754;2022-07-23T08:38:15;5.63;;;4.13;;
22205;SDS011;11272;50.104;8.754;2022-07-23T08:40:47;6.53;;;4.35;;
22205;SDS011;11272;50.104;8.754;2022-07-23T08:43:15;5.97;;;4.20;;
22205;SDS011;11272;50.104;8.754;2022-07-23T08:45:48;5.35;;;4.75;;
22205;SDS011;11272;50.104;8.754;2022-07-23T08:48:21;9.23;;;4.30;;
22205;SDS011;11272;50.104;8.754;2022-07-23T08:50:49;9.00;;;4.25;;
22205;SDS011;11272;50.104;8.754;2022-07-23T08:53:19;4.90;;;4.28;;
22205;SDS011;11272;50.104;8.754;2022-07-23T08:55:47;8.05;;;4.43;;
22205;SDS011;11272;50.104;8.754;2022-07-23T08:58:14;6.30;;;4.50;;
22205;SDS011;11272;50.104;8.754;2022-07-23T09:00:39;7.65;;;4.55;;
22205;SDS011;11272;50.104;8.754;2022-07-23T09:03:05;5.28;;;4.05;;
22205;SDS011;11272;50.104;8.754;2022-07-23T09:05:31;8.57;;;4.07;;
22205;SDS011;11272;50.104;8.754;2022-07-23T09:13:22;8.15;;;4.47;;
22205;SDS011;11272;50.104;8.754;2022-07-23T09:15:52;4.63;;;3.90;;
22205;SDS011;11272;50.104;8.754;2022-07-23T09:18:19;5.88;;;3.90;;
22205;SDS011;11272;50.104;8.754;2022-07-23T09:20:45;7.90;;;4.40;;
22205;SDS011;11272;50.104;8.754;2022-07-23T09:23:20;4.85;;;3.95;;
22205;SDS011;11272;50.104;8.754;2022-07-23T09:26:01;9.32;;;5.25;;
22205;SDS011;11272;50.104;8.754;2022-07-23T09:28:27;8.02;;;4.13;;
22205;SDS011;11272;50.104;8.754;2022-07-23T09:30:52;8.13;;;4.90;;
22205;SDS011;11272;50.104;8.754;2022-07-23T09:33:18;5.22;;;4.30;;
22205;SDS011;11272;50.104;8.754;2022-07-23T09:35:46;5.28;;;4.45;;
22205;SDS011;11272;50.104;8.754;2022-07-23T09:38:20;4.95;;;3.88;;
22205;SDS011;11272;50.104;8.754;2022-07-23T09:40:46;6.53;;;4.03;;
22205;SDS011;11272;50.104;8.754;2022-07-23T09:43:30;7.15;;;4.03;;
22205;SDS011;11272;50.104;8.754;2022-07-23T09:46:16;4.38;;;3.97;;
22205;SDS011;11272;50.104;8.754;2022-07-23T09:48:50;4.43;;;3.92;;
22205;SDS011;11272;50.104;8.754;2022-07-23T09:51:19;6.72;;;4.40;;
22205;SDS011;11272;50.104;8.754;2022-07-23T09:53:57;6.07;;;4.53;;
22205;SDS011;11272;50.104;8.754;2022-07-23T09:56:22;8.48;;;4.38;;
22205;SDS011;11272;50.104;8.754;2022-07-23T09:58:49;8.57;;;4.10;;
22205;SDS011;11272;50.104;8.754;2022-07-23T10:01:17;6.03;;;4.22;;
22205;SDS011;11272;50.104;8.754;2022-07-23T10:03:42;6.38;;;3.67;;
22205;SDS011;11272;50.104;8.754;2022-07-23T10:06:43;4.72;;;3.85;;
22205;SDS011;11272;50.104;8.754;2022-07-23T10:09:30;4.30;;;3.90;;
22205;SDS011;11272;50.104;8.754;2022-07-23T10:12:32;5.00;;;3.67;;
22205;SDS011;11272;50.104;8.754;2022-07-23T10:15:10;4.18;;;3.78;;
22205;SDS011;11272;50.104;8.754;2022-07-23T10:17:36;7.05;;;4.20;;
22205;SDS011;11272;50.104;8.754;2022-07-23T10:20:02;4.72;;;3.70;;
22205;SDS011;11272;50.104;8.754;2022-07-23T10:22:30;4.22;;;3.83;;
22205;SDS011;11272;50.104;8.754;2022-07-23T10:28:12;5.93;;;3.80;;
22205;SDS011;11272;50.104;8.754;2022-07-23T10:41:47;5.60;;;4.03;;
22205;SDS011;11272;50.104;8.754;2022-07-23T10:44:13;6.57;;;3.88;;
22205;SDS011;11272;50.104;8.754;2022-07-23T10:46:55;6.97;;;4.18;;
22205;SDS011;11272;50.104;8.754;2022-07-23T10:54:38;5.70;;;3.95;;
22205;SDS011;11272;50.104;8.754;2022-07-23T10:57:05;4.22;;;3.67;;
22205;SDS011;11272;50.104;8.754;2022-07-23T10:59:44;5.53;;;3.90;;
22205;SDS011;11272;50.104;8.754;2022-07-23T11:02:28;4.32;;;3.88;;
22205;SDS011;11272;50.104;8.754;2022-07-23T11:04:56;5.15;;;3.60;;
22205;SDS011;11272;50.104;8.754;2022-07-23T11:07:25;4.57;;;4.10;;
22205;SDS011;11272;50.104;8.754;2022-07-23T11:09:50;4.80;;;4.03;;
22205;SDS011;11272;50.104;8.754;2022-07-23T11:20:23;5.40;;;4.25;;
22205;SDS011;11272;50.104;8.754;2022-07-23T11:22:50;6.82;;;4.50;;
22205;SDS011;11272;50.104;8.754;2022-07-23T11:27:47;5.78;;;4.00;;
22205;SDS011;11272;50.104;8.754;2022-07-23T11:32:52;4.47;;;4.07;;
22205;SDS011;11272;50.104;8.754;2022-07-23T11:35:33;4.65;;;4.25;;
22205;SDS011;11272;50.104;8.754;2022-07-23T11:38:04;4.60;;;4.05;;
22205;SDS011;11272;50.104;8.754;2022-07-23T11:40:32;4.75;;;4.22;;
22205;SDS011;11272;50.104;8.754;2022-07-23T11:42:59;4.93;;;3.70;;
22205;SDS011;11272;50.104;8.754;2022-07-23T11:45:36;4.55;;;4.15;;
22205;SDS011;11272;50.104;8.754;2022-07-23T11:48:04;4.68;;;4.10;;
22205;SDS011;11272;50.104;8.754;2022-07-23T11:50:31;6.60;;;4.18;;
22205;SDS011;11272;50.104;8.754;2022-07-23T11:52:57;5.57;;;4.32;;
22205;SDS011;11272;50.104;8.754;2022-07-23T11:55:24;4.40;;;4.00;;
22205;SDS011;11272;50.104;8.754;2022-07-23T11:57:50;6.32;;;4.10;;
22205;SDS011;11272;50.104;8.754;2022-07-23T12:00:19;5.28;;;3.88;;
22205;SDS011;11272;50.104;8.754;2022-07-23T12:02:57;5.07;;;3.80;;
22205;SDS011;11272;50.104;8.754;2022-07-23T12:05:26;6.38;;;4.18;;
22205;SDS011;11272;50.104;8.754;2022-07-23T12:07:55;4.28;;;3.88;;
22205;SDS011;11272;50.104;8.754;2022-07-23T12:13:11;6.75;;;4.13;;
22205;SDS011;11272;50.104;8.754;2022-07-23T12:15:39;4.57;;;3.63;;
22205;SDS011;11272;50.104;8.754;2022-07-23T12:18:11;6.05;;;4.15;;
22205;SDS011;11272;50.104;8.754;2022-07-23T12:20:46;4.95;;;4.10;;
22205;SDS011;11272;50.104;8.754;2022-07-23T12:23:15;3.83;;;3.50;;
22205;SDS011;11272;50.104;8.754;2022-07-23T12:25:43;5.65;;;3.90;;
22205;SDS011;11272;50.104;8.754;2022-07-23T12:28:14;7.68;;;3.97;;
22205;SDS011;11272;50.104;8.754;2022-07-23T12:30:42;7.72;;;4.00;;
22205;SDS011;11272;50.104;8.754;2022-07-23T12:33:11;6.57;;;4.03;;
22205;SDS011;11272;50.104;8.754;2022-07-23T12:35:39;5.05;;;3.85;;
22205;SDS011;11272;50.104;8.754;2022-07-23T12:38:09;6.50;;;4.35;;
22205;SDS011;11272;50.104;8.754;2022-07-23T12:40:37;4.28;;;3.88;;
22205;SDS011;11272;50.104;8.754;2022-07-23T12:43:11;5.65;;;4.18;;
22205;SDS011;11272;50.104;8.754;2022-07-23T12:45:48;5.88;;;3.85;;
22205;SDS011;11272;50.104;8.754;2022-07-23T12:48:29;6.85;;;3.90;;
22205;SDS011;11272;50.104;8.754;2022-07-23T12:51:05;4.35;;;3.85;;
22205;SDS011;11272;50.104;8.754;2022-07-23T12:53:33;4.55;;;3.80;;
22205;SDS011;11272;50.104;8.754;2022-07-23T12:56:04;5.68;;;4.25;;
22205;SDS011;11272;50.104;8.754;2022-07-23T13:01:06;5.03;;;4.53;;
22205;SDS011;11272;50.104;8.754;2022-07-23T13:03:37;5.53;;;5.03;;
22205;SDS011;11272;50.104;8.754;2022-07-23T13:06:05;5.25;;;4.32;;
22205;SDS011;11272;50.104;8.754;2022-07-23T13:08:33;9.30;;;4.55;;
22205;SDS011;11272;50.104;8.754;2022-07-23T13:10:59;4.78;;;4.28;;
22205;SDS011;11272;50.104;8.754;2022-07-23T13:13:26;4.72;;;4.00;;
22205;SDS011;11272;50.104;8.754;2022-07-23T13:15:53;5.65;;;3.97;;
22205;SDS011;11272;50.104;8.754;2022-07-23T13:18:19;6.30;;;5.00;;
22205;SDS011;11272;50.104;8.754;2022-07-23T13:20:45;7.93;;;4.65;;
22205;SDS011;11272;50.104;8.754;2022-07-23T13:23:12;4.82;;;4.18;;
22205;SDS011;11272;50.104;8.754;2022-07-23T13:25:38;4.75;;;4.25;;
22205;SDS011;11272;50.104;8.754;2022-07-23T13:28:03;6.07;;;4.35;;
22205;SDS011;11272;50.104;8.754;2022-07-23T13:30:29;9.60;;;4.50;;
22205;SDS011;11272;50.104;8.754;2022-07-23T13:32:55;6.65;;;4.57;;
22205;SDS011;11272;50.104;8.754;2022-07-23T13:35:20;6.22;;;4.60;;
22205;SDS011;11272;50.104;8.754;2022-07-23T13:37:46;4.70;;;4.25;;
22205;SDS011;11272;50.104;8.754;2022-07-23T13:40:12;4.97;;;4.25;;
22205;SDS011;11272;50.104;8.754;2022-07-23T13:42:37;7.07;;;4.60;;
22205;SDS011;11272;50.104;8.754;2022-07-23T13:45:03;5.03;;;4.28;;
22205;SDS011;11272;50.104;8.754;2022-07-23T13:47:30;5.15;;;4.65;;
22205;SDS011;11272;50.104;8.754;2022-07-23T13:49:56;5.22;;;4.40;;
22205;SDS011;11272;50.104;8.754;2022-07-23T13:52:21;5.30;;;4.10;;
22205;SDS011;11272;50.104;8.754;2022-07-23T13:54:46;5.35;;;4.13;;
22205;SDS011;11272;50.104;8.754;2022-07-23T13:57:12;4.40;;;4.00;;
22205;SDS011;11272;50.104;8.754;2022-07-23T13:59:37;5.63;;;4.07;;
22205;SDS011;11272;50.104;8.754;2022-07-23T14:02:03;5.80;;;4.53;;
22205;SDS011;11272;50.104;8.754;2022-07-23T14:04:29;5.57;;;4.68;;
22205;SDS011;11272;50.104;8.754;2022-07-23T14:06:55;6.15;;;5.00;;
22205;SDS011;11272;50.104;8.754;2022-07-23T14:09:21;6.45;;;5.10;;
22205;SDS011;11272;50.104;8.754;2022-07-23T14:11:47;5.50;;;4.93;;
22205;SDS011;11272;50.104;8.754;2022-07-23T14:14:15;5.75;;;4.28;;
22205;SDS011;11272;50.104;8.754;2022-07-23T14:16:40;5.10;;;4.60;;
22205;SDS011;11272;50.104;8.754;2022-07-23T14:19:06;5.88;;;4.25;;
22205;SDS011;11272;50.104;8.754;2022-07-23T14:21:31;5.50;;;4.53;;
22205;SDS011;11272;50.104;8.754;2022-07-23T14:23:56;6.43;;;4.30;;
22205;SDS011;11272;50.104;8.754;2022-07-23T14:26:22;5.68;;;5.03;;
22205;SDS011;11272;50.104;8.754;2022-07-23T14:28:47;5.10;;;4.70;;
22205;SDS011;11272;50.104;8.754;2022-07-23T14:31:12;6.18;;;4.97;;
22205;SDS011;11272;50.104;8.754;2022-07-23T14:33:38;4.68;;;4.25;;
22205;SDS011;11272;50.104;8.754;2022-07-23T14:36:03;5.90;;;4.22;;
22205;SDS011;11272;50.104;8.754;2022-07-23T14:38:29;5.25;;;4.75;;
22205;SDS011;11272;50.104;8.754;2022-07-23T14:40:56;4.95;;;4.35;;
22205;SDS011;11272;50.104;8.754;2022-07-23T14:43:21;7.95;;;4.70;;
22205;SDS011;11272;50.104;8.754;2022-07-23T14:45:47;6.85;;;4.25;;
22205;SDS011;11272;50.104;8.754;2022-07-23T14:48:13;9.02;;;4.75;;
22205;SDS011;11272;50.104;8.754;2022-07-23T14:50:38;7.30;;;5.03;;
22205;SDS011;11272;50.104;8.754;2022-07-23T14:53:05;5.78;;;5.18;;
22205;SDS011;11272;50.104;8.754;2022-07-23T14:55:31;6.68;;;5.05;;
22205;SDS011;11272;50.104;8.754;2022-07-23T14:57:57;6.43;;;4.40;;
22205;SDS011;11272;50.104;8.754;2022-07-23T15:00:23;7.97;;;5.05;;
22205;SDS011;11272;50.104;8.754;2022-07-23T15:02:48;4.63;;;4.22;;
22205;SDS011;11272;50.104;8.754;2022-07-23T15:05:13;9.70;;;4.85;;
22205;SDS011;11272;50.104;8.754;2022-07-23T15:07:39;6.75;;;4.80;;
22205;SDS011;11272;50.104;8.754;2022-07-23T15:10:04;6.03;;;4.75;;
22205;SDS011;11272;50.104;8.754;2022-07-23T15:12:30;5.32;;;4.55;;
22205;SDS011;11272;50.104;8.754;2022-07-23T15:14:56;5.75;;;4.85;;
22205;SDS011;11272;50.104;8.754;2022-07-23T15:17:21;8.30;;;5.00;;
22205;SDS011;11272;50.104;8.754;2022-07-23T15:19:46;6.38;;;4.63;;
22205;SDS011;11272;50.104;8.754;2022-07-23T15:22:12;8.65;;;5.32;;
22205;SDS011;11272;50.104;8.754;2022-07-23T15:24:37;6.93;;;5.30;;
22205;SDS011;11272;50.104;8.754;2022-07-23T15:27:03;7.88;;;5.13;;
22205;SDS011;11272;50.104;8.754;2022-07-23T15:29:28;8.85;;;4.88;;
22205;SDS011;11272;50.104;8.754;2022-07-23T15:31:53;7.80;;;5.60;;